Latest Weather Observations for Lucas Heights

IDN60801

Issued at 5:32 pm EST Monday 25 September 2017 (issued every 30 minutes, with the page automatically refreshed every 10 minutes)

About weather observations | Map of weather stations | Latest weather observations for NSW | Other Formats
Station Details ID: 066023 Name: LUCAS HEIGHTS AWS Lat: -34.05 Lon: 150.98 Height: 140.0 m
Data from the previous 72 hours. | See also: Recent months for locations in New South Wales
Date/Time
EST
Temp
°C
App
Temp
°C
Dew
Point
°C
Rel
Hum
%
Delta-T
°C
Wind Press
QNH
hPa
Press
MSL
hPa
Rain since
9am
mm
Dir  Spd
km/h
Gust
km/h
Spd
kts
Gust
kts
25/05:15pm 21.2 12.8 -6.1 15 10.9 WSW 30 48 16 26 1008.0 - 0.0
25/05:00pm 21.7 13.7 -6.1 15 11.1 WSW 28 43 15 23 1007.6 - 0.0
25/04:45pm 22.1 14.2 -4.9 16 11.1 WSW 28 44 15 24 1007.2 - 0.0
25/04:30pm 22.5 15.4 -4.4 16 11.2 WSW 24 43 13 23 1006.8 - 0.0
25/04:15pm 22.9 15.0 -4.5 15 11.4 WSW 28 43 15 23 1006.5 - 0.0
25/04:00pm 23.2 15.2 -6.1 13 11.9 WSW 28 46 15 25 1006.1 - 0.0
25/03:45pm 23.3 15.2 -6.8 13 12.1 WSW 28 41 15 22 1005.9 - 0.0
25/03:30pm 23.8 15.2 -8.2 11 12.6 WSW 30 46 16 25 1005.5 - 0.0
25/03:15pm 23.9 14.4 -8.0 11 12.6 WSW 35 56 19 30 1005.4 - 0.0
25/03:00pm 24.5 15.9 -7.6 11 12.8 WSW 30 52 16 28 1005.3 - 0.0
25/02:45pm 24.4 15.9 -7.2 11 12.7 WSW 30 44 16 24 1005.1 - 0.0
25/02:30pm 24.7 16.5 -7.3 11 12.9 WSW 28 50 15 27 1005.0 - 0.0
25/02:15pm 24.8 17.8 -7.0 11 12.9 WSW 22 43 12 23 1004.6 - 0.0
25/02:00pm 24.9 17.1 -7.3 11 13.0 WSW 26 39 14 21 1004.7 - 0.0
25/01:45pm 24.7 16.9 -7.1 11 12.9 W 26 43 14 23 1004.7 - 0.0
25/01:30pm 24.4 15.5 -7.6 11 12.8 W 32 43 17 23 1004.7 - 0.0
25/01:15pm 24.2 14.7 -7.9 11 12.7 W 35 48 19 26 1004.9 - 0.0
25/01:00pm 24.1 14.1 -8.6 10 12.8 WSW 37 56 20 30 1005.0 - 0.0
25/12:45pm 24.2 14.3 -8.3 11 12.8 W 37 57 20 31 1005.1 - 0.0
25/12:30pm 23.8 13.1 -8.5 11 12.6 W 41 61 22 33 1005.2 - 0.0
25/12:15pm 23.9 14.0 -7.7 11 12.5 W 37 52 20 28 1005.4 - 0.0
25/12:00pm 23.6 13.7 -7.2 12 12.3 W 37 56 20 30 1005.6 - 0.0
25/11:45am 23.4 13.1 -7.4 12 12.2 W 39 57 21 31 1005.8 - 0.0
25/11:30am 22.9 14.0 -6.9 13 11.9 W 32 50 17 27 1006.0 - 0.0
25/11:15am 22.7 13.3 -6.9 13 11.8 W 35 52 19 28 1006.3 - 0.0
25/11:00am 22.6 13.1 -7.3 13 11.8 W 35 52 19 28 1006.3 - 0.0
25/10:45am 22.6 14.5 -6.5 14 11.7 W 28 52 15 28 1006.7 - 0.0
25/10:30am 22.3 13.4 -6.8 13 11.6 W 32 50 17 27 1007.1 - 0.0
25/10:15am 22.3 14.3 -5.8 15 11.4 W 28 52 15 28 1007.4 - 0.0
25/10:00am 21.5 15.3 -3.5 18 10.5 WNW 20 30 11 16 1007.5 - 0.0
25/09:45am 21.4 14.4 -3.3 19 10.4 WNW 24 35 13 19 1007.6 - 0.0
25/09:30am 20.9 13.6 -2.9 20 10.1 WNW 26 37 14 20 1007.7 - 0.0
25/09:15am 20.6 13.3 -2.8 20 9.9 WNW 26 44 14 24 1007.7 - 0.0
25/09:00am 20.4 13.9 -2.7 21 9.8 WNW 22 39 12 21 1007.7 - 0.0
25/08:45am 20.1 14.0 -2.2 22 9.5 W 20 35 11 19 1007.8 - 0.0
25/08:30am 19.5 13.6 -2.5 22 9.3 W 19 30 10 16 1007.8 - 0.0
25/08:15am 19.4 13.8 -2.9 22 9.3 WNW 17 24 9 13 1007.7 - 0.0
25/08:00am 19.0 13.8 -2.9 22 9.1 W 15 20 8 11 1007.5 - 0.0
25/07:45am 18.6 14.1 -3.4 22 9.0 W 11 17 6 9 1007.3 - 0.0
25/07:30am 18.5 14.8 -2.7 23 8.8 W 7 13 4 7 1007.3 - 0.0
25/07:15am 17.6 14.0 -2.1 26 8.2 W 7 11 4 6 1007.1 - 0.0
25/07:00am 16.5 13.0 -1.1 30 7.4 W 7 13 4 7 1007.0 - 0.0
25/06:45am 16.2 12.6 -2.3 28 7.6 W 7 9 4 5 1007.0 - 0.0
25/06:30am 15.8 12.1 -2.8 27 7.5 W 7 9 4 5 1006.9 - 0.0
25/06:15am 15.4 11.3 -3.2 27 7.4 W 9 13 5 7 1006.8 - 0.0
25/06:00am 16.0 10.7 -3.6 26 7.8 WSW 15 20 8 11 1006.5 - 0.0
25/05:45am 16.4 10.7 -4.0 24 8.1 WSW 17 22 9 12 1006.3 - 0.0
25/05:30am 16.7 10.6 -4.2 23 8.3 WSW 19 24 10 13 1006.2 - 0.0
25/05:15am 16.9 10.7 -4.7 22 8.5 WSW 19 30 10 16 1006.0 - 0.0
25/05:00am 16.9 11.1 -4.9 22 8.5 SW 17 24 9 13 1005.7 - 0.0
25/04:45am 17.0 10.6 -4.8 22 8.5 SW 20 30 11 16 1005.5 - 0.0
25/04:30am 17.2 10.9 -3.8 23 8.4 SW 20 26 11 14 1005.4 - 0.0
25/04:15am 18.0 13.2 -2.9 24 8.6 WSW 13 19 7 10 1005.4 - 0.0
25/04:00am 17.4 13.5 -1.8 27 8.0 WSW 9 13 5 7 1005.3 - 0.0
25/03:45am 16.1 12.2 -1.3 30 7.3 W 9 13 5 7 1005.2 - 0.0
25/03:30am 17.3 13.4 -1.7 27 8.0 W 9 17 5 9 1004.9 - 0.0
25/03:15am 17.7 13.4 -1.5 27 8.1 WNW 11 19 6 10 1004.7 - 0.0
25/03:00am 16.9 12.7 -1.1 29 7.6 NW 11 17 6 9 1004.6 - 0.0
25/02:45am 16.2 12.4 -0.9 31 7.2 NW 9 15 5 8 1004.5 - 0.0
25/02:30am 16.1 11.5 -1.0 31 7.2 NW 13 15 7 8 1004.5 - 0.0
25/02:15am 16.4 12.2 -1.2 30 7.4 NNW 11 15 6 8 1004.5 - 0.0
25/02:00am 16.5 12.6 -1.3 29 7.5 NNW 9 13 5 7 1004.5 - 0.0
25/01:45am 16.4 12.9 -1.4 29 7.4 NW 7 11 4 6 1004.4 - 0.0
25/01:30am 17.1 13.2 -1.6 28 7.8 NW 9 13 5 7 1004.4 - 0.0
25/01:15am 16.9 13.0 -1.4 28 7.7 NNW 9 17 5 9 1004.4 - 0.0
25/01:00am 16.5 12.6 -1.5 29 7.5 N 9 17 5 9 1004.3 - 0.0
25/12:45am 16.9 13.3 -1.8 28 7.8 WNW 7 9 4 5 1004.4 - 0.0
25/12:30am 17.1 13.5 -1.8 27 7.9 NNW 7 13 4 7 1004.4 - 0.0
25/12:15am 17.1 13.1 -2.5 26 8.1 NNW 9 13 5 7 1004.7 - 0.0
25/12:00am 17.2 12.8 -2.5 26 8.1 NNW 11 13 6 7 1004.6 - 0.0
 
Date/Time
EST
Temp
°C
App
Temp
°C
Dew
Point
°C
Rel
Hum
%
Delta-T
°C
Wind Press
QNH
hPa
Press
MSL
hPa
Rain since
9am
mm
Dir  Spd
km/h
Gust
km/h
Spd
kts
Gust
kts
24/11:45pm 17.8 13.0 -2.9 24 8.5 NW 13 15 7 8 1004.5 - 0.0
24/11:30pm 19.0 14.4 -3.7 21 9.3 NW 11 13 6 7 1004.5 - 0.0
24/11:15pm 19.6 15.0 -4.0 20 9.6 NW 11 19 6 10 1004.4 - 0.0
24/11:00pm 20.1 15.4 -4.6 18 10.0 WNW 11 17 6 9 1004.3 - 0.0
24/10:45pm 20.0 14.9 -4.8 18 10.0 WNW 13 17 7 9 1004.4 - 0.0
24/10:30pm 20.1 15.4 -5.0 18 10.1 W 11 17 6 9 1004.5 - 0.0
24/10:15pm 20.6 15.5 -5.3 17 10.4 W 13 15 7 8 1004.5 - 0.0
24/10:00pm 20.6 15.5 -5.4 17 10.4 W 13 19 7 10 1004.6 - 0.0
24/09:45pm 20.5 15.0 -5.0 17 10.3 W 15 17 8 9 1004.7 - 0.0
24/09:30pm 20.7 15.2 -5.4 17 10.5 W 15 19 8 10 1004.7 - 0.0
24/09:15pm 20.7 14.8 -5.3 17 10.5 WSW 17 19 9 10 1004.7 - 0.0
24/09:00pm 20.7 14.8 -5.6 16 10.5 WSW 17 20 9 11 1004.7 - 0.0
24/08:45pm 20.7 14.4 -5.9 16 10.6 WSW 19 22 10 12 1004.6 - 0.0
24/08:30pm 20.8 14.5 -6.1 16 10.7 WSW 19 22 10 12 1004.7 - 0.0
24/08:15pm 21.0 14.7 -6.3 15 10.8 WSW 19 22 10 12 1004.7 - 0.0
24/08:00pm 21.3 15.3 -6.2 15 10.9 WSW 17 20 9 11 1004.6 - 0.0
24/07:45pm 21.4 15.1 -6.1 15 11.0 W 19 26 10 14 1004.6 - 0.0
24/07:30pm 21.6 15.0 -6.5 14 11.1 W 20 24 11 13 1004.4 - 0.0
24/07:15pm 21.6 15.2 -6.8 14 11.2 W 19 28 10 15 1004.2 - 0.0
24/07:00pm 21.9 15.5 -7.0 14 11.4 W 19 24 10 13 1004.0 - 0.0
24/06:45pm 22.0 15.6 -7.3 13 11.5 W 19 26 10 14 1003.8 - 0.0
24/06:30pm 22.3 16.6 -7.8 12 11.7 W 15 20 8 11 1003.6 - 0.0
24/06:15pm 23.1 16.5 -8.7 11 12.3 W 19 26 10 14 1003.2 - 0.0
24/06:00pm 23.6 16.4 -9.2 10 12.6 W 22 30 12 16 1003.1 - 0.0
24/05:45pm 24.0 15.6 -10.0 9 12.9 W 28 35 15 19 1003.0 - 0.0
24/05:30pm 24.5 16.4 -10.8 9 13.3 W 26 41 14 22 1002.8 - 0.0
24/05:15pm 24.8 16.3 -11.2 8 13.5 W 28 43 15 23 1002.7 - 0.0
24/05:00pm 25.0 15.2 -11.3 8 13.6 W 35 50 19 27 1002.7 - 0.0
24/04:45pm 25.4 16.0 -11.3 8 13.8 W 33 48 18 26 1002.6 - 0.0
24/04:30pm 25.2 14.6 -11.3 8 13.7 W 39 57 21 31 1002.4 - 0.0
24/04:15pm 25.3 16.1 -10.4 8 13.7 W 32 50 17 27 1002.4 - 0.0
24/04:00pm 25.5 15.8 -9.6 9 13.7 W 35 48 19 26 1002.3 - 0.0
24/03:45pm 25.4 16.7 -8.9 9 13.5 WNW 30 44 16 24 1002.2 - 0.0
24/03:30pm 25.2 16.8 -9.9 9 13.5 W 28 43 15 23 1002.2 - 0.0
24/03:15pm 25.4 16.3 -10.2 9 13.7 W 32 50 17 27 1002.3 - 0.0
24/03:00pm 25.4 16.6 -10.6 8 13.7 W 30 48 16 26 1002.3 - 0.0
24/02:45pm 25.4 14.4 -11.8 8 13.9 W 41 63 22 34 1002.2 - 0.0
24/02:30pm 25.8 14.5 -11.4 8 14.0 W 43 61 23 33 1002.5 - 0.0
24/02:15pm 26.5 15.9 -12.3 7 14.5 W 39 52 21 28 1002.5 - 0.0
24/02:00pm 26.5 16.6 -12.3 7 14.5 W 35 56 19 30 1002.2 - 0.0
24/01:45pm 27.2 16.2 -12.1 7 14.9 W 41 67 22 36 1002.4 - 0.0
24/01:30pm 27.3 15.9 -12.1 7 14.9 W 43 65 23 35 1002.5 - 0.0
24/01:15pm 27.7 18.2 -12.2 6 15.2 W 33 56 18 30 1002.2 - 0.0
24/01:00pm 27.5 15.8 -13.6 6 15.2 W 44 63 24 34 1002.6 - 0.0
24/12:45pm 27.7 17.4 -12.5 6 15.2 W 37 61 20 33 1002.7 - 0.0
24/12:30pm 27.3 18.8 -11.7 7 14.9 W 28 48 15 26 1002.5 - 0.0
24/12:15pm 27.5 19.0 -11.8 7 15.0 W 28 44 15 24 1002.2 - 0.0
24/12:00pm 27.1 17.6 -12.7 6 14.9 W 33 57 18 31 1002.9 - 0.0
24/11:45am 27.2 18.5 -9.8 8 14.6 W 30 50 16 27 1002.8 - 0.0
24/11:30am 27.3 19.2 -7.2 10 14.3 W 28 44 15 24 1003.3 - 0.0
24/11:15am 26.7 20.0 -7.8 10 14.0 W 20 39 11 21 1003.5 - 0.0
24/11:00am 26.5 19.4 -8.7 9 14.1 W 22 32 12 17 1003.9 - 0.0
24/10:45am 26.4 19.3 -8.5 9 14.0 W 22 37 12 20 1004.0 - 0.0
24/10:30am 25.8 17.5 -8.6 9 13.7 W 28 39 15 21 1004.2 - 0.0
24/10:15am 25.8 17.2 -8.3 10 13.6 WSW 30 43 16 23 1004.1 - 0.0
24/10:00am 25.5 16.9 -8.5 10 13.5 WSW 30 43 16 23 1004.0 - 0.0
24/09:45am 25.5 17.2 -8.7 10 13.5 WSW 28 41 15 22 1004.0 - 0.0
24/09:30am 25.4 16.2 -8.2 10 13.4 WSW 33 44 18 24 1004.0 - 0.0
24/09:15am 25.5 17.4 -7.0 11 13.3 WSW 28 50 15 27 1003.5 - 0.0
24/09:00am 25.1 18.1 -7.2 11 13.1 WSW 22 32 12 17 1003.1 - 0.0
24/08:45am 24.6 17.2 -7.4 11 12.9 WSW 24 37 13 20 1003.1 - 0.0
24/08:30am 24.5 17.4 -8.2 11 12.9 WSW 22 37 12 20 1002.6 - 0.0
24/08:15am 24.3 17.8 -8.4 11 12.9 WSW 19 30 10 16 1002.5 - 0.0
24/08:00am 23.9 18.2 -7.8 11 12.6 WSW 15 28 8 15 1002.7 - 0.0
24/07:45am 23.7 17.3 -6.7 12 12.3 WSW 19 30 10 16 1002.5 - 0.0
24/07:30am 23.6 16.8 -4.8 14 11.9 WSW 22 32 12 17 1002.4 - 0.0
24/07:15am 23.6 17.0 -2.9 17 11.5 WSW 22 37 12 20 1002.3 - 0.0
24/07:00am 23.7 16.3 -0.6 20 11.0 WSW 28 44 15 24 1002.1 - 0.0
24/06:45am 24.3 18.5 0.1 20 11.2 WSW 20 35 11 19 1001.6 - 0.0
24/06:30am 25.0 18.7 -1.1 18 11.8 WSW 22 39 12 21 1001.2 - 0.0
24/06:15am 26.1 19.1 -3.2 14 12.9 WSW 24 39 13 21 1000.7 - 0.0
24/06:00am 27.6 18.3 -5.6 11 14.2 W 35 52 19 28 1000.7 - 0.0
24/05:45am 28.5 20.1 -6.4 10 14.8 W 30 44 16 24 999.7 - 0.0
24/05:30am 28.9 19.4 -7.1 9 15.1 WNW 35 50 19 27 999.2 - 0.0
24/05:15am 28.9 19.4 -7.2 9 15.2 WNW 35 54 19 29 998.8 - 0.0
24/05:00am 28.8 18.5 -8.5 8 15.3 WNW 39 61 21 33 998.9 - 0.0
24/04:45am 28.0 18.8 -8.1 9 14.8 WNW 33 48 18 26 998.7 - 0.0
24/04:30am 28.0 19.4 -7.7 9 14.7 WNW 30 37 16 20 998.5 - 0.0
24/04:15am 28.0 19.4 -8.0 9 14.8 WNW 30 37 16 20 998.0 - 0.0
24/04:00am 27.8 19.9 -8.4 9 14.7 WNW 26 35 14 19 997.6 - 0.0
24/03:45am 27.9 19.7 -8.4 8 14.8 WNW 28 37 15 20 997.9 - 0.0
24/03:30am 27.1 19.0 -6.9 10 14.1 WNW 28 41 15 22 998.5 - 0.0
24/03:15am 27.0 19.7 -6.7 10 14.0 WNW 24 35 13 19 998.5 - 0.0
24/03:00am 26.9 18.4 -6.6 10 14.0 WNW 30 37 16 20 998.1 - 0.0
24/02:45am 26.8 18.0 -6.5 10 13.9 WNW 32 39 17 21 997.8 - 0.0
24/02:30am 27.0 19.7 -6.8 10 14.0 WNW 24 35 13 19 997.8 - 0.0
24/02:15am 27.7 19.9 -7.8 9 14.6 WNW 26 35 14 19 998.0 - 0.0
24/02:00am 27.9 19.3 -7.8 9 14.7 NW 30 43 16 23 998.0 - 0.0
24/01:45am 27.3 18.3 -6.7 10 14.2 NW 33 43 18 23 998.0 - 0.0
24/01:30am 26.7 18.3 -5.5 11 13.7 NW 30 37 16 20 998.0 - 0.0
24/01:15am 26.0 18.5 -4.7 13 13.1 NW 26 35 14 19 998.0 - 0.0
24/01:00am 25.8 18.3 -4.5 13 13.0 WNW 26 35 14 19 998.2 - 0.0
24/12:45am 25.9 19.2 -4.4 13 13.0 NW 22 30 12 16 998.6 - 0.0
24/12:30am 26.1 19.0 -4.2 13 13.1 NW 24 33 13 18 999.0 - 0.0
24/12:15am 26.1 18.6 -4.8 12 13.2 NW 26 33 14 18 999.4 - 0.0
24/12:00am 26.3 20.0 -4.4 13 13.2 NNW 20 26 11 14 999.1 - 0.0
 
Date/Time
EST
Temp
°C
App
Temp
°C
Dew
Point
°C
Rel
Hum
%
Delta-T
°C
Wind Press
QNH
hPa
Press
MSL
hPa
Rain since
9am
mm
Dir  Spd
km/h
Gust
km/h
Spd
kts
Gust
kts
23/11:45pm 26.8 19.6 -5.3 12 13.7 NNW 24 35 13 19 999.4 - 0.0
23/11:30pm 27.1 19.5 -6.0 11 14.0 NNW 26 39 14 21 1000.0 - 0.0
23/11:15pm 27.3 18.8 -6.6 10 14.2 NW 30 39 16 21 1000.5 - 0.0
23/11:00pm 27.4 18.3 -6.9 10 14.3 NW 33 43 18 23 1000.8 - 0.0
23/10:45pm 27.1 19.3 -7.1 10 14.1 NW 26 35 14 19 1000.7 - 0.0
23/10:30pm 27.3 19.9 -7.6 9 14.3 NW 24 32 13 17 1000.8 - 0.0
23/10:15pm 27.5 19.7 -8.1 9 14.5 WNW 26 35 14 19 1000.9 - 0.0
23/10:00pm 27.4 20.3 -8.0 9 14.5 WNW 22 32 12 17 1001.0 - 0.0
23/09:45pm 27.5 19.6 -8.5 9 14.6 WNW 26 32 14 17 1001.1 - 0.0
23/09:30pm 27.3 20.2 -8.3 9 14.4 NW 22 30 12 16 1000.9 - 0.0
23/09:15pm 27.4 19.9 -8.4 9 14.5 NW 24 32 13 17 1000.8 - 0.0
23/09:00pm 27.7 20.2 -8.9 8 14.7 NNW 24 30 13 16 1000.9 - 0.0
23/08:45pm 27.6 20.0 -9.2 8 14.7 NNW 24 32 13 17 1000.8 - 0.0
23/08:30pm 27.5 20.3 -10.0 8 14.8 NNW 22 32 12 17 1000.8 - 0.0
23/08:15pm 27.8 20.9 -10.9 7 15.1 NNW 20 26 11 14 1000.8 - 0.0
23/08:00pm 28.9 21.0 -14.0 5 16.0 NNW 24 32 13 17 1000.7 - 0.0
23/07:45pm 29.6 21.2 -16.3 4 16.6 NNW 26 33 14 18 1000.8 - 0.0
23/07:30pm 29.9 21.5 -17.5 4 16.8 NNW 26 33 14 18 1000.7 - 0.0
23/07:15pm 30.2 21.3 -18.6 3 17.1 NW 28 37 15 20 1000.8 - 0.0
23/07:00pm 30.3 21.8 -18.4 3 17.1 NW 26 37 14 20 1000.9 - 0.0
23/06:45pm 30.4 21.9 -18.1 3 17.2 NW 26 35 14 19 1000.8 - 0.0
23/06:30pm 30.0 22.6 -12.6 5 16.5 NW 22 35 12 19 1000.8 - 0.0
23/06:15pm 26.7 22.3 2.9 21 11.8 NW 15 30 8 16 1001.0 - 0.0
23/06:00pm 26.7 24.2 4.6 24 11.3 N 7 17 4 9 1000.8 - 0.0
23/05:45pm 27.6 24.7 4.4 22 11.8 NNE 9 20 5 11 1000.8 - 0.0
23/05:30pm 29.1 26.3 3.2 19 13.1 N 7 22 4 12 1000.6 - 0.0
23/05:15pm 31.4 26.6 -2.7 11 15.8 NNW 13 28 7 15 1000.6 - 0.0
23/05:00pm 32.8 26.9 -10.5 5 17.8 NNW 15 39 8 21 1000.4 - 0.0
23/04:45pm 31.0 28.0 0.8 14 14.8 - 6 13 3 7 1000.5 - 0.0
23/04:30pm 30.8 27.6 1.0 15 14.6 NNE 7 13 4 7 1000.5 - 0.0
23/04:15pm 30.9 26.8 -0.4 13 15.0 NNE 11 19 6 10 1000.5 - 0.0
23/04:00pm 32.1 27.0 -4.9 9 16.6 NNE 13 24 7 13 1000.5 - 0.0
23/03:45pm 33.1 27.1 -11.0 5 18.0 N 15 24 8 13 1000.6 - 0.0
23/03:30pm 33.1 26.5 -14.3 4 18.4 N 17 30 9 16 1000.7 - 0.0
23/03:15pm 33.4 26.3 -18.6 3 18.9 NNW 19 35 10 19 1000.8 - 0.0
23/03:00pm 34.1 26.6 -23.3 2 19.5 NNW 20 32 11 17 1000.9 - 0.0
23/02:45pm 34.3 25.2 -27.3 1 19.8 NNW 28 41 15 22 1001.1 - 0.0
23/02:30pm 34.2 26.3 -25.8 1 19.7 NNW 22 41 12 22 1001.2 - 0.0
23/02:15pm 34.2 26.0 -22.8 2 19.5 NNW 24 39 13 21 1001.6 - 0.0
23/02:00pm 33.6 25.0 -23.0 2 19.2 NNW 26 43 14 23 1001.9 - 0.0
23/01:45pm 33.3 25.4 -23.0 2 19.0 N 22 41 12 22 1002.2 - 0.0
23/01:30pm 33.0 25.3 -17.2 3 18.5 - 22 39 12 21 1002.5 - 0.0
23/01:15pm 31.9 25.6 -10.7 6 17.3 N 17 30 9 16 1003.0 - 0.0
23/01:00pm 30.6 24.9 -8.0 7 16.2 N 15 28 8 15 1003.6 - 0.0
23/12:45pm 29.7 24.1 -6.9 9 15.6 N 15 24 8 13 1004.2 - 0.0
23/12:30pm 28.7 22.7 -6.9 9 15.0 NNW 17 28 9 15 1004.6 - 0.0
23/12:15pm 27.9 23.7 -3.9 12 14.0 N 9 22 5 12 1004.9 - 0.0
23/12:00pm 26.6 22.6 -2.2 15 13.0 N 9 19 5 10 1005.3 - 0.0
23/11:45am 25.9 21.1 -2.2 15 12.6 NNW 13 22 7 12 1005.8 - 0.0
23/11:30am 25.9 20.7 -2.5 15 12.6 NNW 15 22 8 12 1006.2 - 0.0
23/11:15am 26.1 21.6 -3.1 14 12.9 NNW 11 22 6 12 1006.4 - 0.0
23/11:00am 26.0 20.9 -2.0 15 12.6 NNW 15 24 8 13 1006.8 - 0.0
23/10:45am 24.9 19.1 -1.2 18 11.8 NNW 19 26 10 14 1007.2 - 0.0
23/10:30am 24.0 18.7 -0.5 19 11.2 NNW 17 28 9 15 1007.3 - 0.0
23/10:15am 23.2 18.3 -0.4 21 10.7 NW 15 24 8 13 1007.7 - 0.0
23/10:00am 22.4 17.2 -0.2 22 10.2 NW 17 24 9 13 1008.1 - 0.0
23/09:45am 21.8 16.1 -0.4 22 9.9 NW 19 26 10 14 1008.4 - 0.0
23/09:30am 21.4 16.1 -0.4 23 9.7 NW 17 28 9 15 1008.6 - 0.0
23/09:15am 21.2 15.9 -0.4 23 9.6 NW 17 24 9 13 1008.8 - 0.0
23/09:00am 20.7 15.8 -0.4 24 9.4 NW 15 22 8 12 1009.1 - 0.0
23/08:45am 19.6 14.3 -0.6 25 8.8 NW 17 24 9 13 1009.3 - 0.0
23/08:30am 19.4 14.0 -1.0 25 8.8 WNW 17 22 9 12 1009.4 - 0.0
23/08:15am 19.5 14.5 -1.4 24 9.0 NW 15 22 8 12 1009.3 - 0.0
23/08:00am 19.5 14.5 -1.5 24 9.0 NW 15 20 8 11 1009.3 - 0.0
23/07:45am 19.5 14.1 -1.6 24 9.0 WNW 17 24 9 13 1009.4 - 0.0
23/07:30am 19.6 14.2 -1.6 24 9.1 WNW 17 20 9 11 1009.4 - 0.0
23/07:15am 20.0 14.6 -1.7 23 9.3 WNW 17 20 9 11 1009.3 - 0.0
23/07:00am 19.7 14.2 -2.0 23 9.2 WNW 17 22 9 12 1009.3 - 0.0
23/06:45am 19.6 14.1 -2.1 23 9.2 WNW 17 22 9 12 1009.2 - 0.0
23/06:30am 19.2 13.7 -2.3 23 9.1 WNW 17 22 9 12 1009.3 - 0.0
23/06:15am 18.8 13.3 -2.4 23 8.9 WNW 17 22 9 12 1009.3 - 0.0
23/06:00am 18.7 12.8 -2.5 23 8.9 WNW 19 22 10 12 1009.2 - 0.0
23/05:45am 18.9 13.3 -2.6 23 9.0 WNW 17 22 9 12 1009.2 - 0.0
23/05:30am 19.0 13.4 -2.9 22 9.1 WNW 17 20 9 11 1009.3 - 0.0
23/05:15am 19.4 14.2 -3.1 21 9.3 WNW 15 19 8 10 1009.2 - 0.0
23/05:00am 19.0 13.8 -2.8 22 9.1 WNW 15 19 8 10 1009.3 - 0.0
23/04:45am 19.0 13.8 -2.6 23 9.0 WNW 15 17 8 9 1009.3 - 0.0
23/04:30am 19.6 14.3 -3.2 21 9.5 NW 15 19 8 10 1009.4 - 0.0
23/04:15am 19.7 14.4 -3.3 21 9.5 NW 15 17 8 9 1009.4 - 0.0
23/04:00am 20.3 15.0 -3.8 19 10.0 NW 15 17 8 9 1009.5 - 0.0
23/03:45am 20.7 15.4 -3.8 19 10.2 WNW 15 17 8 9 1009.5 - 0.0
23/03:30am 21.0 16.1 -3.8 18 10.3 WNW 13 17 7 9 1009.5 - 0.0
23/03:15am 20.9 16.4 -2.9 20 10.1 W 11 15 6 8 1009.5 - 0.0
23/03:00am 21.5 16.9 -1.2 22 10.0 W 13 17 7 9 1009.5 - 0.0
23/02:45am 22.0 17.1 -0.4 22 10.1 W 15 17 8 9 1009.6 - 0.0
23/02:30am 22.3 17.4 -0.4 22 10.2 W 15 19 8 10 1009.7 - 0.0
23/02:15am 22.0 16.5 -2.2 19 10.5 W 17 22 9 12 1009.9 - 0.0
23/02:00am 21.5 15.8 -1.0 22 9.9 W 19 22 10 12 1010.1 - 0.0
23/01:45am 18.4 13.2 3.4 37 7.1 WSW 20 22 11 12 1010.4 - 0.0
23/01:30am 15.2 10.7 6.3 55 4.3 WSW 19 20 10 11 1010.5 - 0.0
23/01:15am 15.3 10.8 6.1 54 4.5 WSW 19 22 10 12 1010.6 - 0.0
23/01:00am 16.6 12.4 5.5 48 5.4 WSW 17 19 9 10 1010.6 - 0.0
23/12:45am 17.9 13.8 6.1 46 5.8 WSW 17 22 9 12 1010.7 - 0.0
23/12:30am 16.8 12.3 6.8 51 5.0 WSW 20 24 11 13 1010.7 - 0.0
23/12:15am 18.8 14.7 7.7 48 5.7 WSW 19 19 10 10 1010.7 - 0.0
23/12:00am 15.8 12.6 8.6 62 3.7 W 15 19 8 10 1010.8 - 0.0
 
Date/Time
EST
Temp
°C
App
Temp
°C
Dew
Point
°C
Rel
Hum
%
Delta-T
°C
Wind Press
QNH
hPa
Press
MSL
hPa
Rain since
9am
mm
Dir  Spd
km/h
Gust
km/h
Spd
kts
Gust
kts
22/11:45pm 14.5 11.3 7.0 60 3.7 W 13 15 7 8 1010.9 - 0.0
22/11:30pm 15.8 13.0 6.8 55 4.4 W 11 13 6 7 1010.8 - 0.0
22/11:15pm 17.2 14.7 8.2 55 4.6 WNW 11 13 6 7 1010.9 - 0.0
22/11:00pm 15.3 14.0 7.5 59 3.9 WNW 4 11 2 6 1010.7 - 0.0
22/10:45pm 15.6 14.6 7.5 58 4.1 W 2 4 1 2 1010.7 - 0.0
22/10:30pm 15.7 14.7 7.2 57 4.2 S 2 6 1 3 1010.9 - 0.0
22/10:15pm 17.3 16.2 7.0 50 5.2 NW 2 4 1 2 1011.1 - 0.0
22/10:00pm 18.4 17.0 7.1 47 5.7 W 4 7 2 4 1011.5 - 0.0
22/09:45pm 18.0 16.2 7.3 49 5.4 NW 6 7 3 4 1011.7 - 0.0
22/09:30pm 18.2 16.9 7.6 50 5.4 N 4 7 2 4 1011.7 - 0.0
22/09:15pm 18.5 16.7 7.8 49 5.5 NNE 7 11 4 6 1011.6 - 0.0
22/09:00pm 19.3 16.3 7.9 47 5.9 NNE 13 17 7 9 1011.5 - 0.0
22/08:45pm 19.7 16.9 8.4 48 5.9 NE 13 19 7 10 1011.5 - 0.0
22/08:30pm 19.0 16.7 9.0 52 5.3 ENE 11 17 6 9 1011.6 - 0.0
22/08:15pm 19.2 16.9 8.9 51 5.4 ENE 11 15 6 8 1011.5 - 0.0
22/08:00pm 19.5 17.6 8.9 50 5.6 E 9 13 5 7 1011.4 - 0.0
22/07:45pm 19.8 17.3 8.3 47 6.0 E 11 13 6 7 1011.4 - 0.0
22/07:30pm 19.9 17.3 6.0 40 7.0 ENE 9 13 5 7 1011.3 - 0.0
22/07:15pm 20.6 17.6 3.9 33 8.1 ENE 9 13 5 7 1011.2 - 0.0
22/07:00pm 21.5 17.8 2.5 28 9.0 ENE 11 13 6 7 1010.9 - 0.0
22/06:45pm 22.1 17.8 0.7 24 9.8 ENE 13 15 7 8 1010.8 - 0.0
22/06:30pm 22.4 17.8 -0.9 21 10.4 ENE 13 15 7 8 1010.7 - 0.0
22/06:15pm 22.8 17.7 -1.7 19 10.8 NE 15 17 8 9 1010.5 - 0.0
22/06:00pm 23.3 18.2 -1.8 18 11.1 NE 15 17 8 9 1010.4 - 0.0
22/05:45pm 23.9 19.2 -2.0 18 11.5 NE 13 17 7 9 1010.2 - 0.0

Other Formats:

Comma delimited format used in spreadsheet applications
http://www.bom.gov.au/fwo/IDN60801/IDN60801.95757.axf

JavaScript Object Notation format (JSON) in row-major order
http://www.bom.gov.au/fwo/IDN60801/IDN60801.95757.json